Fort Hood, Texas
Current Conditions -  °F | °C
As of 9:56 PM on Saturday 25 Oct 2014 (Local Time) from KHLR Reporting Station
Clear Clear  
Wind Chill: 23°   Ceiling: Unl
Heat Index: 23°   Visibility: 10mi
Dew Point: 15°   Wind: 5mph
Humidity: 59%   Direction: 140°SE
Pressure: 30.1"   Gusts: NA
Location:  31.2151°N, 97.7405°W
Report Text: KHLR 260256Z 14004KT 10SM CLR 23/15 A3010 RMK AO2 SLPNO 55003 T02330150 $
Loading
Personal Weather Stations






























Interactive Weather Map
Tropical Storm Tracking
New forecast layout! Learn more

10-Day Weather Forecast

Advertisements
Track Severe Weather on mobile